Tannersville, Virginia
Current Conditions -  °F | °C
As of 12:35 PM on Thursday 23 Oct 2014 (Local Time) from KJFZ Reporting Station
Overcast Overcast  
Wind Chill: 45°   Ceiling: 1700
Heat Index: 48°   Visibility: 10mi
Dew Point: 39°   Wind: 6mph
Humidity: 72%   Direction: 330°NNW
Pressure: 30.19"   Gusts: NA
Location:  36.98°N, 81.63°W
Report Text: KJFZ 231635Z AUTO 33005KT 10SM OVC017 09/04 A3019 RMK AO2 T00880041
Loading
Personal Weather Stations






























Interactive Weather Map
Tropical Storm Tracking
New forecast layout! Learn more

10-Day Weather Forecast

Advertisements
Track Severe Weather on mobile